Little Elm, Texas
Current Conditions -  °F | °C
As of 3:49 PM on Thursday 23 Oct 2014 (Local Time) from KADS Reporting Station
Scattered Clouds Scattered Clouds  
Wind Chill: 77°   Ceiling: Unl
Heat Index: 79°   Visibility: 20mi
Dew Point: 55°   Wind: 7mph
Humidity: 47%   Direction: 160°SSE
Pressure: 30.08"   Gusts: NA
Location:  33.16°N, 96.93°W
Report Text: KADS 232049Z 16006KT 20SM SCT130 25/13 A3008
Loading
Personal Weather Stations






























Interactive Weather Map
Tropical Storm Tracking
New forecast layout! Learn more

10-Day Weather Forecast

Advertisements
Track Severe Weather on mobile